Jueves, 23 de Octubre del 2014

portal contactenos mapa del sitio buscar Revisar Correo Corporativo

|Reporte METAR por Reginal » ||Reporte TAF por Reginal » ||Reporte METAR, TAF y SIN覲TICO »

Reporte METAR por Regional

|| La Paz || Santa Cruz || Cochabamba || Beni - Pando ||

Informe METAR emitido cada hora.

Regional La Paz

ESTACIÓN

AEROPUERTO

HORA UTC

DESCRIPCIÓN

SLRY

Reyes

14-18S|67-21W

12:00

SLRY 231200Z 00000KT 8000 BKN080 25/23 Q1013 A2993 HR90 FU RWY OPR 1 000M=

SLRQ

Rurrenabaque

14-25S|67-29W

12:00

SLRQ 231200Z 00000KT 9999 BKN070 BKN200 25/24 Q1012 A2989 HR92 FU=

SLAP

Apolo

14-44S|68-24W

17:00

SLAPO 121700Z NIL=

SLSB

San Borja

14-51S|66-44W

12:00

SLSB 231200Z 00000KT 7000 SCT080 28/25 Q1012 A2990 FU HR82 RWY NML=

SLLP

Internaci贸nal El Alto

16-08S|68-10W

12:00

SLLP 231200Z 11007KT 0400 FG FEW002 SCT012 BKN200 05/04 Q1039 A3071 629.4 P/INV HR92 BECMG 3000E VCFG=

SLCN

Chara帽a

17-35S|69-25W

-

Mensaje no Recibido

SLOR

Oruro

17-57S|67-04W

12:00

SLOR 231200Z 00000KT 8000 FEW013 SCT070 08/04 Q1038 A3067 658.5 FU/E/SE/S/SW CI HR77=

SLUY

Uyuni

20-27S|62-52W

12:00

SLUY 231200Z 06005KT 9999 NSC 07/M03 Q1037 A3063 660.4 HR57=

Regional Cochabamba

ESTACIÓN

AEROPUERTO

HORA UTC

DESCRIPCIÓN

SLCB

Cochabamba

17-25S|66-10W

12:00

SLCB 231200Z 00000KT 9000 SCT025 FEW027CB BKN070 17/10 Q1028 A3038 754.3 HR64 CB W/NW FU NOSIG=

SLSU

Sucre

19-00S|65-17W

12:00

SLSU 231200Z 00000KT 9999 SCT011 13/10 Q1033 A3051 HR82=

SLPO

Potos铆

19-32S|65-43W

12:00

SLPO 231200Z 00000KT 9999 FEW010 BKN200 07/03 Q1039 A3068 HR76=

SLAG

Monteagudo

19-49S|63-58W

12:00

SLAG 231200Z 00000KT 9999 BKN070 21/19Q1021 A3015 HR88 FU RWY CLSD=

SLVM

Villamontes

21-15S|63-24W

12:00

SLVM 231200Z 00000KT 9999 FEW012 SCT023 BKN070 23/20 Q1017 A3003 HR84=

SLTJ

Tarija

21-33S|64-42W

12:00

SLTJ 231200Z 00000KT 8000 FEW010 SCT030 SCT070 18/16 Q1022 A3020 HR85 FU SC BAJOS NE/E/SE=

SLYA

Yacuiba

21-57S|63-39W

12:00

SLYA 231200Z 18004KT 7000 SCT006 BKN023 OVC070 20/19 Q1018 A3008 HR97 VIS RED ST BAJOS TODAS DIRECC SH NW/N=

SLBJ

Bermejo

22-46S|64-18W

12:00

SLBJ 231200Z 36004KT 9999 SCT013 BKN070 23/20 Q1013 A2991 HR87=

Regional Santa Cruz

ESTACIÓN

AEROPUERTO

HORA UTC

DESCRIPCIÓN

SLAS

Ascenci贸n de Guarayos

15-55S|63-09W

12:00

SLAS 231200Z 00000KT 5000 FU NSC 29/22 Q1014 A2994 HR64 RWY NML =

SLCP

Concepci贸n

16-08S|62-01W

12:00

SLCP 231200Z 00000KT 8000 NSC 27/21 Q1015 A2997 HR71 FU RWY NML =

SLJV

San Javier

16-16S|62-28W

12:00

SLJV 231200Z 00000KT 9999 NSC 26/22 Q1013 A2991 HR77 FU RWY NML =

SLTI

San Mat铆as

16-20S|58-24W

12:00

SLTI 231200Z 36008KT 9999 NSC 27/22 Q1020 A3012 HR75 RWY NML=

SLSI

San Ignacio de Velasco

16-23S|60-57W

12:00

SLSI 231200Z 00000KT 9999 NSC 26/23 Q1013 A2991 HR88 RWY NML=

SLVR

Internaci贸nal Viru Viru

17-38S|63-08W

12:00

SLVR 231200Z 03007KT 7000 SCT020 BKN200 29/21 Q1013 A2993 HR64 FU NOSIG=

SLET

El Trompillo

17-48S|63-10W

12:00

SLET 231200Z 35004KT 8000 SCT070 BKN200 29/20 Q1013 A2993 HR55 FU NOSIG=

SLJE

San Jos茅 de Chiquitos

17-49S|60-44W

12:00

SLJE 231200Z 03004KT 8000 NSC 30/20 Q1016 A3000 HR56 FU RWY NML =

SLRB

Robor茅

18-19S|59-45W

12:00

SLRB 231200Z 00000KT 9999 NSC 28/24 Q1016 A3000 HR78 RWY NML=

SLVG

Valle Grande

18-28S|64-05W

12:00

SLVG 231200Z 00000KT 9999 NSC 18/13 Q1027 A3033 HR69 FU RWY NML =

SLPS

Puerto Su谩rez

18-58S|57-49W

12:00

SLPS 231200Z 06008KT 9999 SCT070 28/21 Q1012 A2989 HR69 FU=

SLCA

Camiri

20-00S|63-31W

12:00

SLCA 231200Z 00000KT 9999 BKN033 23/18 Q1019 A3009 HR72 FU RWY NML=

Regional Beni

ESTACIÓN

AEROPUERTO

HORA UTC

DESCRIPCIÓN

SLGM

Guayaramer铆n

10-49S|65-20W

12:00

SLGM 231200Z 02008KT 5000 FU FEW017 BKN200 27/23 Q1011 A2988 HR82=

SLRI

Riberalta

11-00S|66-04W

12:00

SLRI 231200Z 00000KT 3000 FU NSC 27/23 Q1012 A2989 HR78 CI=

SLCO

Cobija

11-02S|68-47W

12:00

SLCO 231200Z 27005KT 9999 NSC 27/24 Q1012 A2991 985.4 HR85 FU CI=

SLJO

San Joaquin

13-03S|64-39W

12:00

SLJO 231200Z 00000KT 8000 NSC 27/24 Q1010 A2984 HR83 FU CI RWY NML=

SLMG

San Magdalena

13-15S|64-03W

12:00

SLMG 231200Z 00000KT 8000 NSC 28/24 Q1011 A2987 HR79 FU RWY NML=

SLRA

San Ram贸n

13-15S|64-36W

12:00

SLRA 231200Z 00000KT 8000 FEW020 SCT200 28/24 Q1010 A2985 HR81 FU RWY NML=

SLBU

Baures

13-39S|63-42W

12:00

SLBU 231200Z 35006KT 8000 NSC 29/24 Q1012 A2989 HR76 FU RWY NML=

SLSA

Santa Ana de Yacuma

13-45S|65-26W

12:00

SLSA 231200Z 30004KT 8000 NSC 28/23 Q1011 A2986 HR76 FU CI=

SLSR

Santa Rosa

14-04S|66-47W

12:00

SLSR 231200Z 00000KT 7000 NSC 26/24 Q1008 A2977 HR87 FU CI RWY NML=

SLTR

Trinidad

14-49S|64-54W

12:00

SLTR 231200Z 00000KT 5000 FU NSC 28/23 Q1012 A2989 993.8 HR74 CI NOSIG=

SLSM

San Ignacio de Moxos

14-57S|65-38W

12:00

SLSM 231200Z 00000KT 7000 NSC 26/24 Q1010 A2984 HR85 FU CI RWY NML=